Ana Sayfa
METAR-TAF:

METAR-TAF

Havaalanları :

Plainview, Teksas, Amerika Birleşik Devletleri

Enlem: 34-10-05N, Boylam: 101-43-02W, yükseklik: 1028 m

Güncel hava durumu gözlemi

Rapor saat 11:15 UTC de 34 dakika önce yapıldı.
Sakin rüzgar
Sıcaklık 19°C
Nem 88%
Basınç 1011 hPa
Görüş mesafesi: 16.1 km
Açık gökyüzü

METAR: KPVW 161115Z AUTO 00000KT 10SM CLR 19/17 A2986 RMK AO2 T01850168

Saat: 06:49 (11:49 UTC)

Tahmin

Rapor saat 11:20 UTC de 29 dakika önce yapıldı.
Ayın 16'si saat 12 UTC'den ayın 17'si saat 12 UTC'ye kadar geçerli Tahmin
Rüzgar güney/güneydoğudan 10 kt
Görüş mesafesi: 10 km
Açık gökyüzü
Ayın 16'si saat 1400 UTC'den
Rüzgar güneydan 15 kt ve 25 kt'a kadar ani rüzgarlar
Görüş mesafesi: 10 km
25000 ft yükseklikte parçalı bulutlu
Ayın 17'si saat 1000 UTC'den
Rüzgar güney/güneydoğudan 12 kt
Görüş mesafesi: 10 km
25000 ft yükseklikte parçalı çok bulutlu

TAF: KPVW 161120Z 1612/1712 16010KT P6SM SKC FM161400 18015G25KT P6SM SCT250 FM171000 16012KT P6SM BKN250

4.000'den fazla havaalanı için hava durumu gözlemleri ve tahminleri (METAR ve TAF raporları).

Kullanılabilir istasyonlar harita üzerinde sarı ve kırmızı noktalarla gösterilir.

İstasyonun adını görmek için fareyi noktanın üzerinde gezdirin.

Sonrasında hava gözlem ve tahminlerini görmek için tıklayın.

Haritayı değiştirmek için: yaklaştırmak için siyah artı işaretli yeşil düğmeye ve uzaklaştırmak için de eksi işaretli düğmeye hızla tıklayın; bitişik haritalar için yeşil okları kullanın.


METAR-TAF: